createdAt,value
2017-04-19T00:00:25.716Z,5.09
2017-04-19T00:01:25.748Z,5.04
2017-04-19T00:02:25.777Z,5.01
2017-04-19T00:03:25.813Z,5.01
2017-04-19T00:04:26.157Z,5.02
2017-04-19T00:05:25.896Z,5.04
2017-04-19T00:06:26.207Z,5.01
2017-04-19T00:07:26.249Z,5.04
2017-04-19T00:08:25.969Z,4.99
2017-04-19T00:09:26.308Z,4.95
2017-04-19T00:10:26.032Z,4.96
2017-04-19T00:11:26.065Z,4.94
2017-04-19T00:12:26.096Z,4.99
2017-04-19T00:13:26.538Z,4.91
2017-04-19T00:14:26.163Z,4.94
2017-04-19T00:15:26.502Z,4.95
2017-04-19T00:16:26.544Z,4.92
2017-04-19T00:17:26.560Z,4.96
2017-04-19T00:18:26.293Z,4.92
2017-04-19T00:19:26.624Z,4.94
2017-04-19T00:20:26.350Z,4.91
2017-04-19T00:21:26.685Z,5.02
2017-04-19T00:22:26.714Z,4.91
2017-04-19T00:23:26.749Z,4.94
2017-04-19T00:24:26.477Z,4.95
2017-04-19T00:25:26.547Z,4.92
2017-04-19T00:26:26.540Z,4.89
2017-04-19T00:27:26.568Z,4.94
2017-04-19T00:28:26.608Z,4.99
2017-04-19T00:29:26.637Z,4.96
2017-04-19T00:30:26.664Z,4.96
2017-04-19T00:31:26.715Z,4.94
2017-04-19T00:32:26.729Z,4.91
2017-04-19T00:33:27.061Z,4.89
2017-04-19T00:34:26.793Z,4.91
2017-04-19T00:35:26.824Z,4.86
2017-04-19T00:36:26.859Z,4.88
2017-04-19T00:37:26.888Z,4.89
2017-04-19T00:38:26.921Z,4.75
2017-04-19T00:39:27.263Z,4.84
2017-04-19T00:40:27.159Z,4.72
2017-04-19T00:41:27.015Z,4.79
2017-04-19T00:42:27.049Z,4.84
2017-04-19T00:43:27.686Z,4.79
2017-04-19T00:44:27.416Z,4.67
2017-04-19T00:45:27.450Z,4.72
2017-04-19T00:46:27.172Z,4.77
2017-04-19T00:47:27.206Z,4.69
2017-04-19T00:48:27.538Z,4.65
2017-04-19T00:49:27.273Z,4.61
2017-04-19T00:50:27.601Z,4.65
2017-04-19T00:51:27.629Z,4.59
2017-04-19T00:52:27.666Z,4.54
2017-04-19T00:53:27.397Z,4.51
2017-04-19T00:54:27.465Z,4.61
2017-04-19T00:55:27.452Z,4.54
2017-04-19T00:56:27.486Z,4.54
2017-04-19T00:57:27.529Z,4.46
2017-04-19T00:58:27.565Z,4.4
2017-04-19T00:59:27.774Z,4.46
2017-04-19T01:00:27.914Z,4.44
2017-04-19T01:01:27.803Z,4.34
2017-04-19T01:02:27.674Z,4.4
2017-04-19T01:03:28.011Z,4.29
2017-04-19T01:04:27.737Z,4.37
2017-04-19T01:05:27.771Z,4.37
2017-04-19T01:06:28.099Z,4.26
2017-04-19T01:07:27.867Z,4.33
2017-04-19T01:08:27.864Z,4.28
2017-04-19T01:09:28.375Z,4.29
2017-04-19T01:10:27.937Z,4.26
2017-04-19T01:11:28.258Z,4.24
2017-04-19T01:12:27.990Z,4.24
2017-04-19T01:13:28.019Z,4.16
2017-04-19T01:14:28.054Z,4.22
2017-04-19T01:15:28.094Z,4.14
2017-04-19T01:16:28.412Z,4.07
2017-04-19T01:17:28.148Z,4.15
2017-04-19T01:18:28.397Z,4.01
2017-04-19T01:19:28.200Z,4
2017-04-19T01:20:28.242Z,4.06
2017-04-19T01:21:28.486Z,4.03
2017-04-19T01:22:28.598Z,3.85
2017-04-19T01:23:28.328Z,3.9
2017-04-19T01:24:28.662Z,3.97
2017-04-19T01:25:28.398Z,3.96
2017-04-19T01:26:28.720Z,3.88
2017-04-19T01:27:28.471Z,3.88
2017-04-19T01:28:28.832Z,3.9
2017-04-19T01:29:28.515Z,3.78
2017-04-19T01:30:28.544Z,3.85
2017-04-19T01:31:28.879Z,3.85
2017-04-19T01:32:28.909Z,3.83
2017-04-19T01:33:28.639Z,3.78
2017-04-19T01:34:28.698Z,3.71
2017-04-19T01:35:28.699Z,3.83
2017-04-19T01:36:29.032Z,3.65
2017-04-19T01:37:28.758Z,3.65
2017-04-19T01:38:29.098Z,3.67
2017-04-19T01:39:29.119Z,3.68
2017-04-19T01:40:29.152Z,3.7
2017-04-19T01:41:28.878Z,3.7
2017-04-19T01:42:28.909Z,3.68
2017-04-19T01:43:28.947Z,3.65
2017-04-19T01:44:29.277Z,3.65
2017-04-19T01:45:29.004Z,3.71
2017-04-19T01:46:29.032Z,3.67
2017-04-19T01:47:29.068Z,3.54
2017-04-19T01:48:29.930Z,3.64
2017-04-19T01:49:29.435Z,3.58
2017-04-19T01:50:29.459Z,3.65
2017-04-19T01:51:29.191Z,3.64
2017-04-19T01:52:29.219Z,3.64
2017-04-19T01:53:29.579Z,3.58
2017-04-19T01:54:29.595Z,3.62
2017-04-19T01:55:29.313Z,3.58
2017-04-19T01:56:29.643Z,3.6
2017-04-19T01:57:29.371Z,3.75
2017-04-19T01:58:29.702Z,3.6
2017-04-19T01:59:29.736Z,3.67
2017-04-19T02:00:29.767Z,3.6
2017-04-19T02:01:29.495Z,3.58
2017-04-19T02:02:29.522Z,3.61
2017-04-19T02:03:29.554Z,3.65
2017-04-19T02:04:30.189Z,3.68
2017-04-19T02:05:29.615Z,3.71
2017-04-19T02:06:29.646Z,3.72
2017-04-19T02:07:29.675Z,3.62
2017-04-19T02:08:29.709Z,3.64
2017-04-19T02:09:29.736Z,3.65
2017-04-19T02:10:29.785Z,3.68
2017-04-19T02:11:29.808Z,3.68
2017-04-19T02:12:29.830Z,3.68
2017-04-19T02:13:30.166Z,3.67
2017-04-19T02:14:29.908Z,3.64
2017-04-19T02:15:29.924Z,3.71
2017-04-19T02:16:29.955Z,3.65
2017-04-19T02:17:29.986Z,3.65
2017-04-19T02:18:30.019Z,3.7
2017-04-19T02:19:30.048Z,3.61
2017-04-19T02:20:30.076Z,3.65
2017-04-19T02:21:30.121Z,3.72
2017-04-19T02:22:30.440Z,3.68
2017-04-19T02:23:30.476Z,3.7
2017-04-19T02:24:30.506Z,3.71
2017-04-19T02:25:30.303Z,3.72
2017-04-19T02:26:30.258Z,3.68
2017-04-19T02:27:30.292Z,3.7
2017-04-19T02:28:30.320Z,3.75
2017-04-19T02:29:30.656Z,3.71
2017-04-19T02:30:30.387Z,3.61
2017-04-19T02:31:30.731Z,3.68
2017-04-19T02:32:30.449Z,3.67
2017-04-19T02:33:30.477Z,3.7
2017-04-19T02:34:30.813Z,3.71
2017-04-19T02:35:30.538Z,3.68
2017-04-19T02:36:30.570Z,3.72
2017-04-19T02:37:30.899Z,3.7
2017-04-19T02:38:30.633Z,3.67
2017-04-19T02:39:30.970Z,3.65
2017-04-19T02:40:30.720Z,3.72
2017-04-19T02:41:30.725Z,3.65
2017-04-19T02:42:30.753Z,3.64
2017-04-19T02:43:30.783Z,3.62
2017-04-19T02:44:30.812Z,3.75
2017-04-19T02:45:30.845Z,3.67
2017-04-19T02:46:30.877Z,3.65
2017-04-19T02:47:31.208Z,3.6
2017-04-19T02:48:31.240Z,3.64
2017-04-19T02:49:31.278Z,3.65
2017-04-19T02:50:31.002Z,3.67
2017-04-19T02:51:31.332Z,3.6
2017-04-19T02:52:31.070Z,3.67
2017-04-19T02:53:31.097Z,3.64
2017-04-19T02:54:31.121Z,3.72
2017-04-19T02:55:31.154Z,3.67
2017-04-19T02:56:31.490Z,3.67
2017-04-19T02:57:31.213Z,3.71
2017-04-19T02:58:31.548Z,3.67
2017-04-19T02:59:31.273Z,3.62
2017-04-19T03:00:31.307Z,3.68
2017-04-19T03:01:31.633Z,3.68
2017-04-19T03:02:31.667Z,3.65
2017-04-19T03:03:31.723Z,3.75
2017-04-19T03:04:31.731Z,3.71
2017-04-19T03:05:31.457Z,3.68
2017-04-19T03:06:31.486Z,3.71
2017-04-19T03:07:31.527Z,3.79
2017-04-19T03:08:31.560Z,3.78
2017-04-19T03:09:31.580Z,3.76
2017-04-19T03:10:31.613Z,3.78
2017-04-19T03:11:31.645Z,3.72
2017-04-19T03:12:31.672Z,3.8
2017-04-19T03:13:31.706Z,3.67
2017-04-19T03:14:31.733Z,3.8
2017-04-19T03:15:31.762Z,3.68
2017-04-19T03:16:32.097Z,3.7
2017-04-19T03:17:31.832Z,3.76
2017-04-19T03:18:31.854Z,3.7
2017-04-19T03:19:31.889Z,3.7
2017-04-19T03:20:31.929Z,3.7
2017-04-19T03:21:31.951Z,3.62
2017-04-19T03:22:31.979Z,3.64
2017-04-19T03:23:32.012Z,3.6
2017-04-19T03:24:32.091Z,3.64
2017-04-19T03:25:32.382Z,3.62
2017-04-19T03:26:32.104Z,3.7
2017-04-19T03:27:32.132Z,3.54
2017-04-19T03:28:32.167Z,3.62
2017-04-19T03:29:32.312Z,3.62
2017-04-19T03:30:32.227Z,3.5
2017-04-19T03:31:32.265Z,3.58
2017-04-19T03:32:32.591Z,3.52
2017-04-19T03:33:32.621Z,3.61
2017-04-19T03:34:32.355Z,3.58
2017-04-19T03:35:32.392Z,3.6
2017-04-19T03:36:32.411Z,3.57
2017-04-19T03:37:32.742Z,3.61
2017-04-19T03:38:32.877Z,3.53
2017-04-19T03:39:32.499Z,3.54
2017-04-19T03:40:32.534Z,3.49
2017-04-19T03:41:32.563Z,3.53
2017-04-19T03:42:32.593Z,3.39
2017-04-19T03:43:32.626Z,3.39
2017-04-19T03:44:32.681Z,3.49
2017-04-19T03:45:32.691Z,3.34
2017-04-19T03:46:32.715Z,3.39
2017-04-19T03:47:32.999Z,3.4
2017-04-19T03:48:32.777Z,3.28
2017-04-19T03:49:32.815Z,3.34
2017-04-19T03:50:32.836Z,3.25
2017-04-19T03:51:32.868Z,3.24
2017-04-19T03:52:32.902Z,3.21
2017-04-19T03:53:33.233Z,3.21
2017-04-19T03:54:32.980Z,3.21
2017-04-19T03:55:32.992Z,3.16
2017-04-19T03:56:33.323Z,3.12
2017-04-19T03:57:33.059Z,3.15
2017-04-19T03:58:33.387Z,3.2
2017-04-19T03:59:33.112Z,3.09
2017-04-19T04:00:33.145Z,3.07
2017-04-19T04:01:33.171Z,3.05
2017-04-19T04:02:33.202Z,3.1
2017-04-19T04:03:33.539Z,3.06
2017-04-19T04:04:33.570Z,3.09
2017-04-19T04:05:33.293Z,3.1
2017-04-19T04:06:33.323Z,3
2017-04-19T04:07:33.413Z,3
2017-04-19T04:08:33.387Z,3
2017-04-19T04:09:33.419Z,2.97
2017-04-19T04:10:33.446Z,2.98
2017-04-19T04:11:33.781Z,2.94
2017-04-19T04:12:33.810Z,2.91
2017-04-19T04:13:33.539Z,2.97
2017-04-19T04:14:34.118Z,2.95
2017-04-19T04:15:33.596Z,2.92
2017-04-19T04:16:33.929Z,3
2017-04-19T04:17:33.656Z,2.98
2017-04-19T04:18:33.691Z,2.91
2017-04-19T04:19:34.018Z,2.95
2017-04-19T04:20:33.748Z,2.87
2017-04-19T04:21:33.777Z,2.88
2017-04-19T04:22:34.112Z,2.95
2017-04-19T04:23:33.935Z,2.95
2017-04-19T04:24:33.868Z,2.94
2017-04-19T04:25:33.900Z,2.97
2017-04-19T04:26:33.928Z,2.95
2017-04-19T04:27:33.960Z,2.98
2017-04-19T04:28:34.592Z,2.89
2017-04-19T04:29:34.016Z,2.95
2017-04-19T04:30:34.048Z,3.09
2017-04-19T04:31:34.077Z,2.89
2017-04-19T04:32:34.457Z,2.97
2017-04-19T04:33:34.160Z,2.97
2017-04-19T04:34:34.478Z,2.98
2017-04-19T04:35:34.210Z,2.94
2017-04-19T04:36:34.236Z,2.98
2017-04-19T04:37:34.262Z,2.95
2017-04-19T04:38:34.302Z,2.92
2017-04-19T04:39:34.324Z,3.02
2017-04-19T04:40:34.351Z,3
2017-04-19T04:41:34.718Z,3.06
2017-04-19T04:42:34.718Z,3
2017-04-19T04:43:34.443Z,3.02
2017-04-19T04:44:34.782Z,3.09
2017-04-19T04:45:34.505Z,3.07
2017-04-19T04:46:34.534Z,3.12
2017-04-19T04:47:34.566Z,3.09
2017-04-19T04:48:34.609Z,3.05
2017-04-19T04:49:34.628Z,3.07
2017-04-19T04:50:34.658Z,3.1
2017-04-19T04:51:34.685Z,3.21
2017-04-19T04:52:34.716Z,3.21
2017-04-19T04:53:34.755Z,3.25
2017-04-19T04:54:34.779Z,3.13
2017-04-19T04:55:34.810Z,3.13
2017-04-19T04:56:34.842Z,3.1
2017-04-19T04:57:34.871Z,3.1
2017-04-19T04:58:34.898Z,3.13
2017-04-19T04:59:34.927Z,3.09
2017-04-19T05:00:35.260Z,3.18
2017-04-19T05:01:35.297Z,3.25
2017-04-19T05:02:35.067Z,3.18
2017-04-19T05:03:35.056Z,3.25
2017-04-19T05:04:35.090Z,3.39
2017-04-19T05:05:35.110Z,3.47
2017-04-19T05:06:35.138Z,3.67
2017-04-19T05:07:35.174Z,4
2017-04-19T05:08:35.200Z,4.1
2017-04-19T05:09:35.536Z,4.15
2017-04-19T05:10:35.262Z,4.1
2017-04-19T05:11:35.291Z,4.18
2017-04-19T05:12:35.324Z,4.36
2017-04-19T05:13:35.364Z,4.57
2017-04-19T05:14:35.384Z,4.77
2017-04-19T05:15:35.724Z,5.19
2017-04-19T05:16:35.447Z,5.68
2017-04-19T05:17:35.782Z,6.29
2017-04-19T05:18:35.519Z,6.84
2017-04-19T05:19:35.538Z,7.22
2017-04-19T05:20:35.575Z,7.34
2017-04-19T05:21:35.608Z,7.31
2017-04-19T05:22:35.637Z,7.23
2017-04-19T05:23:35.667Z,6.95
2017-04-19T05:24:35.701Z,6.81
2017-04-19T05:25:35.736Z,6.65
2017-04-19T05:26:35.765Z,6.68
2017-04-19T05:27:35.802Z,6.84
2017-04-19T05:28:35.843Z,7.12
2017-04-19T05:29:35.869Z,7.22
2017-04-19T05:30:35.901Z,7.62
2017-04-19T05:31:36.243Z,7.94
2017-04-19T05:32:35.964Z,8.22
2017-04-19T05:33:36.049Z,8.39
2017-04-19T05:34:36.642Z,8.71
2017-04-19T05:35:36.072Z,9.1
2017-04-19T05:36:36.108Z,9.7
2017-04-19T05:37:36.138Z,10.36
2017-04-19T05:38:36.174Z,11.11
2017-04-19T05:39:36.211Z,11.7
2017-04-19T05:40:36.248Z,12.44
2017-04-19T05:41:36.590Z,13.06
2017-04-19T05:42:36.625Z,13.55
2017-04-19T05:43:36.360Z,14.13
2017-04-19T05:44:36.399Z,14.61
2017-04-19T05:45:36.441Z,15.11
2017-04-19T05:46:36.541Z,15.39
2017-04-19T05:47:36.511Z,15.75
2017-04-19T05:48:36.549Z,15.93
2017-04-19T05:49:36.589Z,16.33
2017-04-19T05:50:36.627Z,16.56
2017-04-19T05:51:36.971Z,16.77
2017-04-19T05:52:36.716Z,17.13
2017-04-19T05:53:36.746Z,17.3
2017-04-19T05:54:36.787Z,17.5
2017-04-19T05:55:36.941Z,17.88
2017-04-19T05:56:36.865Z,18.21
2017-04-19T05:57:36.907Z,18.36
2017-04-19T05:58:36.944Z,18.52
2017-04-19T05:59:36.988Z,18.68
2017-04-19T06:00:37.330Z,19.02
2017-04-19T06:01:37.070Z,19.21
2017-04-19T06:02:37.412Z,19.33
2017-04-19T06:03:37.146Z,19.66
2017-04-19T06:04:37.346Z,19.86
2017-04-19T06:05:37.230Z,20.05
2017-04-19T06:06:37.282Z,20.09
2017-04-19T06:07:37.315Z,20.2
2017-04-19T06:08:37.358Z,20.53
2017-04-19T06:09:37.397Z,20.74
2017-04-19T06:10:37.443Z,20.95
2017-04-19T06:11:37.484Z,21.21
2017-04-19T06:12:37.518Z,21.5
2017-04-19T06:13:37.868Z,21.69
2017-04-19T06:14:37.605Z,21.81
2017-04-19T06:15:37.966Z,21.88
2017-04-19T06:16:37.688Z,21.9
2017-04-19T06:17:38.031Z,21.82
2017-04-19T06:18:37.776Z,21.95
2017-04-19T06:19:37.813Z,21.9
2017-04-19T06:20:37.861Z,22.02
2017-04-19T06:21:37.907Z,22.27
2017-04-19T06:22:37.944Z,22.64
2017-04-19T06:23:37.990Z,22.69
2017-04-19T06:24:38.497Z,22.89
2017-04-19T06:25:38.079Z,22.92
2017-04-19T06:26:38.124Z,22.86
2017-04-19T06:27:38.158Z,22.9
2017-04-19T06:28:38.204Z,22.96
2017-04-19T06:29:38.249Z,22.93
2017-04-19T06:30:38.292Z,23.11
2017-04-19T06:31:38.337Z,23.19
2017-04-19T06:32:38.379Z,23.27
2017-04-19T06:33:38.424Z,23.47
2017-04-19T06:34:38.467Z,23.57
2017-04-19T06:35:38.512Z,23.7
2017-04-19T06:36:38.556Z,23.85
2017-04-19T06:37:38.600Z,24.12
2017-04-19T06:38:38.958Z,24.31
2017-04-19T06:39:38.989Z,24.32
2017-04-19T06:40:38.733Z,24.38
2017-04-19T06:41:39.082Z,24.54
2017-04-19T06:42:38.822Z,24.61
2017-04-19T06:43:39.178Z,24.56
2017-04-19T06:44:38.915Z,24.54
2017-04-19T06:45:39.264Z,24.68
2017-04-19T06:46:39.004Z,24.82
2017-04-19T06:47:39.048Z,25.01
2017-04-19T06:48:39.093Z,25.02
2017-04-19T06:49:39.140Z,25.2
2017-04-19T06:50:39.412Z,25.43
2017-04-19T06:51:39.228Z,25.56
2017-04-19T06:52:39.272Z,25.71
2017-04-19T06:53:39.623Z,25.89
2017-04-19T06:54:39.669Z,25.97
2017-04-19T06:55:39.414Z,26.28
2017-04-19T06:56:39.459Z,26.52
2017-04-19T06:57:39.807Z,26.52
2017-04-19T06:58:39.855Z,26.58
2017-04-19T06:59:39.597Z,26.68
2017-04-19T07:00:39.658Z,26.61
2017-04-19T07:01:39.694Z,26.49
2017-04-19T07:02:39.737Z,26.42
2017-04-19T07:03:39.787Z,26.29
2017-04-19T07:04:39.830Z,26.37
2017-04-19T07:05:39.879Z,26.35
2017-04-19T07:06:39.938Z,26.32
2017-04-19T07:07:39.972Z,26.36
2017-04-19T07:08:40.017Z,26.2
2017-04-19T07:09:40.064Z,26.06
2017-04-19T07:10:40.115Z,25.94
2017-04-19T07:11:40.491Z,25.94
2017-04-19T07:12:40.504Z,26.06
2017-04-19T07:13:40.255Z,26.18
2017-04-19T07:14:40.303Z,26.55
2017-04-19T07:15:40.650Z,26.67
2017-04-19T07:16:40.697Z,26.79
2017-04-19T07:17:40.786Z,26.86
2017-04-19T07:18:40.482Z,27.06
2017-04-19T07:19:40.836Z,27.02
2017-04-19T07:20:40.579Z,27.14
2017-04-19T07:21:40.633Z,26.98
2017-04-19T07:22:40.704Z,27.04
2017-04-19T07:23:41.024Z,27.19
2017-04-19T07:24:40.766Z,27.39
2017-04-19T07:25:40.821Z,27.5
2017-04-19T07:26:40.864Z,27.04
2017-04-19T07:27:40.912Z,26.46
2017-04-19T07:28:40.958Z,25.94
2017-04-19T07:29:41.008Z,25.71
2017-04-19T07:30:41.054Z,25.47
2017-04-19T07:31:41.102Z,25.13
2017-04-19T07:32:41.586Z,24.77
2017-04-19T07:33:41.187Z,24.31
2017-04-19T07:34:41.250Z,24.38
2017-04-19T07:35:41.284Z,24.82
2017-04-19T07:36:41.333Z,25.06
2017-04-19T07:37:41.717Z,25.24
2017-04-19T07:38:41.430Z,25.35
2017-04-19T07:39:41.469Z,25.52
2017-04-19T07:40:41.526Z,25.44
2017-04-19T07:41:41.575Z,25.24
2017-04-19T07:42:41.628Z,24.9
2017-04-19T07:43:41.669Z,24.85
2017-04-19T07:44:42.010Z,24.85
2017-04-19T07:45:41.752Z,24.79
2017-04-19T07:46:41.797Z,24.38
2017-04-19T07:47:41.850Z,24.08
2017-04-19T07:48:41.894Z,23.79
2017-04-19T07:49:41.945Z,23.49
2017-04-19T07:50:42.008Z,23.45
2017-04-19T07:51:42.029Z,23.61
2017-04-19T07:52:42.081Z,23.83
2017-04-19T07:53:42.431Z,24.23
2017-04-19T07:54:42.167Z,24.35
2017-04-19T07:55:42.215Z,24.64
2017-04-19T07:56:42.262Z,24.85
2017-04-19T07:57:42.628Z,25.02
2017-04-19T07:58:42.354Z,25.05
2017-04-19T07:59:42.403Z,24.97
2017-04-19T08:00:42.447Z,24.52
2017-04-19T08:01:42.493Z,23.85
2017-04-19T08:02:42.539Z,23.4
2017-04-19T08:03:42.586Z,23.05
2017-04-19T08:04:43.034Z,22.8
2017-04-19T08:05:42.980Z,22.86
2017-04-19T08:06:42.730Z,23.07
2017-04-19T08:07:43.067Z,23.38
2017-04-19T08:08:42.816Z,23.72
2017-04-19T08:09:42.866Z,24.12
2017-04-19T08:10:42.905Z,24.29
2017-04-19T08:11:42.955Z,24.01
2017-04-19T08:12:42.994Z,23.95
2017-04-19T08:13:43.046Z,24.1
2017-04-19T08:14:43.091Z,24.1
2017-04-19T08:15:43.153Z,23.67
2017-04-19T08:16:43.183Z,23.2
2017-04-19T08:17:43.225Z,22.96
2017-04-19T08:18:43.275Z,22.96
2017-04-19T08:19:43.620Z,22.68
2017-04-19T08:20:43.363Z,22.41
2017-04-19T08:21:43.412Z,22.47
2017-04-19T08:22:43.454Z,22.49
2017-04-19T08:23:43.503Z,22.09
2017-04-19T08:24:43.544Z,21.48
2017-04-19T08:25:43.588Z,20.84
2017-04-19T08:26:43.933Z,19.97
2017-04-19T08:27:43.978Z,19.06
2017-04-19T08:28:43.719Z,18.34
2017-04-19T08:29:43.761Z,17.69
2017-04-19T08:30:44.332Z,17.14
2017-04-19T08:31:43.843Z,16.95
2017-04-19T08:32:43.889Z,17.22
2017-04-19T08:33:43.950Z,17.71
2017-04-19T08:34:43.973Z,18.25
2017-04-19T08:35:44.015Z,18.65
2017-04-19T08:36:44.054Z,19.02
2017-04-19T08:37:44.401Z,19.47
2017-04-19T08:38:44.142Z,19.6
2017-04-19T08:39:44.186Z,19.38
2017-04-19T08:40:44.232Z,19.08
2017-04-19T08:41:44.272Z,18.58
2017-04-19T08:42:44.399Z,18.07
2017-04-19T08:43:44.388Z,17.69
2017-04-19T08:44:44.707Z,17.2
2017-04-19T08:45:44.437Z,16.89
2017-04-19T08:46:44.474Z,16.14
2017-04-19T08:47:44.525Z,15.78
2017-04-19T08:48:44.558Z,15.26
2017-04-19T08:49:44.600Z,14.8
2017-04-19T08:50:44.643Z,14.52
2017-04-19T08:51:44.682Z,14.31
2017-04-19T08:52:44.720Z,14.25
2017-04-19T08:53:44.763Z,14.46
2017-04-19T08:54:44.801Z,14.65
2017-04-19T08:55:44.843Z,15.05
2017-04-19T08:56:45.190Z,15.41
2017-04-19T08:57:45.223Z,15.48
2017-04-19T08:58:44.962Z,15.35
2017-04-19T08:59:45.004Z,15.06
2017-04-19T09:00:45.049Z,14.87
2017-04-19T09:01:45.086Z,14.6
2017-04-19T09:02:45.427Z,14.34
2017-04-19T09:03:45.462Z,14.17
2017-04-19T09:04:45.197Z,14.09
2017-04-19T09:05:45.241Z,13.88
2017-04-19T09:06:45.277Z,13.62
2017-04-19T09:07:45.619Z,13.51
2017-04-19T09:08:45.353Z,13.2
2017-04-19T09:09:45.402Z,13.22
2017-04-19T09:10:45.430Z,13.12
2017-04-19T09:11:45.472Z,12.96
2017-04-19T09:12:45.507Z,13.14
2017-04-19T09:13:45.545Z,13.17
2017-04-19T09:14:45.588Z,13.2
2017-04-19T09:15:45.626Z,13.14
2017-04-19T09:16:45.969Z,13.06
2017-04-19T09:17:46.033Z,13.04
2017-04-19T09:18:45.741Z,13.03
2017-04-19T09:19:45.779Z,13.09
2017-04-19T09:20:46.224Z,12.99
2017-04-19T09:21:45.857Z,13.12
2017-04-19T09:22:46.202Z,13.11
2017-04-19T09:23:45.937Z,12.89
2017-04-19T09:24:45.980Z,12.74
2017-04-19T09:25:46.013Z,12.49
2017-04-19T09:26:46.353Z,12.23
2017-04-19T09:27:46.387Z,12.06
2017-04-19T09:28:46.127Z,11.89
2017-04-19T09:29:46.467Z,11.9
2017-04-19T09:30:46.249Z,11.87
2017-04-19T09:31:46.253Z,11.93
2017-04-19T09:32:46.282Z,11.87
2017-04-19T09:33:46.320Z,12.05
2017-04-19T09:34:46.354Z,12.05
2017-04-19T09:35:46.389Z,11.9
2017-04-19T09:36:46.736Z,11.9
2017-04-19T09:37:46.467Z,11.77
2017-04-19T09:38:46.507Z,11.67
2017-04-19T09:39:46.557Z,11.52
2017-04-19T09:40:46.581Z,11.35
2017-04-19T09:41:46.657Z,11.14
2017-04-19T09:42:46.658Z,10.94
2017-04-19T09:43:46.695Z,10.58
2017-04-19T09:44:47.056Z,10.21
2017-04-19T09:45:46.768Z,10.07
2017-04-19T09:46:46.805Z,9.99
2017-04-19T09:47:47.146Z,9.97
2017-04-19T09:48:46.882Z,9.75
2017-04-19T09:49:47.156Z,9.78
2017-04-19T09:50:47.259Z,9.68
2017-04-19T09:51:46.988Z,9.58
2017-04-19T09:52:47.036Z,9.63
2017-04-19T09:53:47.371Z,9.71
2017-04-19T09:54:47.103Z,9.93
2017-04-19T09:55:47.147Z,10.01
2017-04-19T09:56:47.172Z,10.18
2017-04-19T09:57:47.211Z,10.36
2017-04-19T09:58:47.405Z,10.56
2017-04-19T09:59:47.281Z,10.65
2017-04-19T10:00:47.325Z,10.94
2017-04-19T10:01:47.358Z,11.16
2017-04-19T10:02:47.392Z,11.32
2017-04-19T10:03:47.433Z,11.46
2017-04-19T10:04:47.469Z,11.49
2017-04-19T10:05:47.508Z,11.61
2017-04-19T10:06:47.551Z,11.61
2017-04-19T10:07:47.583Z,11.61
2017-04-19T10:08:47.628Z,11.49
2017-04-19T10:09:47.660Z,11.46
2017-04-19T10:10:47.718Z,11.27
2017-04-19T10:11:47.734Z,11.17
2017-04-19T10:12:47.777Z,11.11
2017-04-19T10:13:47.815Z,10.89
2017-04-19T10:14:48.461Z,10.99
2017-04-19T10:15:47.905Z,10.6
2017-04-19T10:16:47.928Z,10.62
2017-04-19T10:17:48.137Z,10.59
2017-04-19T10:18:48.004Z,10.55
2017-04-19T10:19:48.054Z,10.66
2017-04-19T10:20:48.077Z,10.73
2017-04-19T10:21:48.113Z,10.88
2017-04-19T10:22:48.151Z,11.07
2017-04-19T10:23:48.186Z,11.16
2017-04-19T10:24:48.240Z,11.17
2017-04-19T10:25:48.570Z,11.1
2017-04-19T10:26:48.368Z,11.07
2017-04-19T10:27:48.351Z,11.07
2017-04-19T10:28:48.685Z,10.95
2017-04-19T10:29:48.421Z,10.88
2017-04-19T10:30:48.462Z,10.71
2017-04-19T10:31:48.495Z,10.51
2017-04-19T10:32:48.537Z,10.28
2017-04-19T10:33:48.566Z,10.07
2017-04-19T10:34:48.608Z,9.85
2017-04-19T10:35:48.644Z,9.78
2017-04-19T10:36:48.687Z,9.57
2017-04-19T10:37:48.717Z,9.46
2017-04-19T10:38:48.753Z,9.18
2017-04-19T10:39:48.793Z,9.12
2017-04-19T10:40:48.834Z,9.13
2017-04-19T10:41:48.869Z,9.01
2017-04-19T10:42:48.898Z,9.05
2017-04-19T10:43:48.940Z,9.15
2017-04-19T10:44:48.975Z,9.21
2017-04-19T10:45:49.310Z,9.2
2017-04-19T10:46:49.048Z,9.34
2017-04-19T10:47:49.085Z,9.45
2017-04-19T10:48:49.123Z,9.52
2017-04-19T10:49:49.165Z,9.63
2017-04-19T10:50:49.498Z,9.71
2017-04-19T10:51:49.553Z,10
2017-04-19T10:52:49.269Z,10.24
2017-04-19T10:53:49.312Z,10.51
2017-04-19T10:54:49.344Z,10.68
2017-04-19T10:55:49.661Z,10.83
2017-04-19T10:56:49.730Z,10.83
2017-04-19T10:57:49.456Z,10.95
2017-04-19T10:58:49.505Z,10.89
2017-04-19T10:59:49.534Z,10.83
2017-04-19T11:00:49.570Z,10.74
2017-04-19T11:01:49.614Z,10.65
2017-04-19T11:02:49.646Z,10.52
2017-04-19T11:03:49.683Z,10.52
2017-04-19T11:04:49.785Z,10.33
2017-04-19T11:05:49.760Z,10.21
2017-04-19T11:06:49.795Z,10.22
2017-04-19T11:07:50.136Z,10.07
2017-04-19T11:08:49.872Z,9.94
2017-04-19T11:09:50.208Z,9.85
2017-04-19T11:10:50.248Z,9.81
2017-04-19T11:11:49.993Z,9.67
2017-04-19T11:12:50.025Z,9.58
2017-04-19T11:13:50.057Z,9.56
2017-04-19T11:14:50.100Z,9.53
2017-04-19T11:15:50.128Z,9.43
2017-04-19T11:16:50.166Z,9.28
2017-04-19T11:17:50.200Z,9.24
2017-04-19T11:18:50.236Z,9.1
2017-04-19T11:19:50.275Z,9.01
2017-04-19T11:20:50.316Z,8.73
2017-04-19T11:21:50.350Z,8.54
2017-04-19T11:22:50.687Z,8.29
2017-04-19T11:23:50.726Z,8.17
2017-04-19T11:24:50.466Z,8.21
2017-04-19T11:25:50.798Z,8.3
2017-04-19T11:26:50.531Z,8.44
2017-04-19T11:27:50.577Z,8.62
2017-04-19T11:28:50.607Z,8.78
2017-04-19T11:29:50.941Z,8.94
2017-04-19T11:30:50.684Z,9.04
2017-04-19T11:31:50.714Z,9.23
2017-04-19T11:32:50.753Z,9.39
2017-04-19T11:33:50.784Z,9.53
2017-04-19T11:34:51.131Z,9.57
2017-04-19T11:35:50.864Z,9.66
2017-04-19T11:36:50.900Z,9.78
2017-04-19T11:37:50.936Z,9.73
2017-04-19T11:38:50.987Z,9.64
2017-04-19T11:39:51.010Z,9.61
2017-04-19T11:40:51.348Z,9.68
2017-04-19T11:41:51.389Z,9.75
2017-04-19T11:42:51.120Z,9.83
2017-04-19T11:43:51.170Z,9.88
2017-04-19T11:44:51.196Z,9.86
2017-04-19T11:45:51.539Z,9.85
2017-04-19T11:46:51.265Z,9.73
2017-04-19T11:47:51.326Z,9.68
2017-04-19T11:48:51.345Z,9.66
2017-04-19T11:49:51.601Z,9.63
2017-04-19T11:50:51.415Z,9.68
2017-04-19T11:51:51.451Z,9.79
2017-04-19T11:52:51.491Z,9.79
2017-04-19T11:53:51.525Z,9.96
2017-04-19T11:54:51.868Z,10.12
2017-04-19T11:55:51.601Z,10.24
2017-04-19T11:56:51.644Z,10.36
2017-04-19T11:57:51.674Z,10.52
2017-04-19T11:58:51.710Z,10.65
2017-04-19T11:59:51.751Z,10.59
2017-04-19T12:00:51.783Z,10.55
2017-04-19T12:01:51.828Z,10.52
2017-04-19T12:02:51.859Z,10.32
2017-04-19T12:03:52.197Z,10.18
2017-04-19T12:04:51.940Z,9.96
2017-04-19T12:05:51.967Z,9.73
2017-04-19T12:06:52.307Z,9.58
2017-04-19T12:07:52.042Z,9.45
2017-04-19T12:08:52.079Z,9.35
2017-04-19T12:09:52.416Z,9.21
2017-04-19T12:10:52.148Z,9.16
2017-04-19T12:11:52.185Z,9.13
2017-04-19T12:12:52.523Z,9.06
2017-04-19T12:13:52.254Z,9.16
2017-04-19T12:14:52.302Z,9.1
2017-04-19T12:15:52.635Z,9.1
2017-04-19T12:16:52.369Z,9.05
2017-04-19T12:17:52.400Z,9.06
2017-04-19T12:18:52.434Z,9.05
2017-04-19T12:19:52.696Z,9.2
2017-04-19T12:20:52.509Z,9.34
2017-04-19T12:21:52.542Z,9.34
2017-04-19T12:22:52.581Z,9.5
2017-04-19T12:23:52.615Z,9.52
2017-04-19T12:24:52.654Z,9.6
2017-04-19T12:25:52.690Z,9.64
2017-04-19T12:26:52.725Z,9.73
2017-04-19T12:27:52.757Z,9.86
2017-04-19T12:28:52.797Z,10.03
2017-04-19T12:29:52.833Z,10.19
2017-04-19T12:30:52.869Z,10.26
2017-04-19T12:31:52.908Z,10.4
2017-04-19T12:32:52.942Z,10.58
2017-04-19T12:33:52.976Z,10.58
2017-04-19T12:34:53.016Z,10.68
2017-04-19T12:35:53.050Z,10.83
2017-04-19T12:36:53.089Z,10.88
2017-04-19T12:37:53.427Z,11.02
2017-04-19T12:38:53.166Z,10.95
2017-04-19T12:39:53.201Z,11.01
2017-04-19T12:40:53.233Z,11.06
2017-04-19T12:41:53.275Z,11.03
2017-04-19T12:42:53.310Z,11.06
2017-04-19T12:43:53.346Z,11.07
2017-04-19T12:44:53.383Z,10.94
2017-04-19T12:45:53.419Z,11.01
2017-04-19T12:46:53.461Z,10.89
2017-04-19T12:47:53.491Z,10.77
2017-04-19T12:48:53.528Z,10.59
2017-04-19T12:49:53.568Z,10.47
2017-04-19T12:50:53.606Z,10.4
2017-04-19T12:51:53.642Z,10.24
2017-04-19T12:52:53.679Z,10.18
2017-04-19T12:53:54.016Z,10.19
2017-04-19T12:54:54.055Z,10.14
2017-04-19T12:55:53.787Z,10.28
2017-04-19T12:56:53.833Z,10.24
2017-04-19T12:57:53.858Z,10.36
2017-04-19T12:58:53.898Z,10.37
2017-04-19T12:59:53.935Z,10.43
2017-04-19T13:00:53.978Z,10.43
2017-04-19T13:01:54.007Z,10.59
2017-04-19T13:02:54.042Z,10.55
2017-04-19T13:03:54.081Z,10.66
2017-04-19T13:04:54.121Z,10.74
2017-04-19T13:05:54.457Z,10.91
2017-04-19T13:06:54.497Z,10.92
2017-04-19T13:07:54.228Z,10.94
2017-04-19T13:08:54.269Z,10.98
2017-04-19T13:09:54.313Z,10.98